Time;durP1;ratioP1;P1;durP2;ratioP2;P2;SDS_P1;SDS_P2;PMS_P1;PMS_P2;Temp;Humidity;BMP_temperature;BMP_pressure;BME280_temperature;BME280_humidity;BME280_pressure;Samples;Min_cycle;Max_cycle;Signal;HPM_P1;HPM_P2
2023/05/31 00:02:16;;;;;;;;;;;;;;;19.75;100.00;99803.13;5029126;28;19927;-77
2023/05/31 00:04:41;;;;;;;;;;;;;;;19.79;100.00;99806.25;5025276;28;20392;-78
2023/05/31 00:07:07;;;;;;;;;;;;;;;19.71;100.00;99817.94;5029390;28;19917;-79
2023/05/31 00:09:32;;;;;;;;;;;;;;;19.71;100.00;99807.22;5025869;28;20027;-79
2023/05/31 00:11:57;;;;;;;;;;;;;;;19.73;100.00;99813.22;5029660;28;19917;-78
2023/05/31 00:14:24;;;;;;;;;;;;;;;19.65;100.00;99820.56;5025009;28;19932;-79
2023/05/31 00:16:50;;;;;;;;;;;;;;;19.56;100.00;99819.84;5028189;28;20028;-78
2023/05/31 00:19:15;;;;;;;;;;;;;;;19.45;100.00;99818.53;5025301;28;20015;-78
2023/05/31 00:21:42;;;;;;;;;;;;;;;19.47;100.00;99819.19;5025087;28;19917;-79
2023/05/31 00:24:08;;;;;;;;;;;;;;;19.47;100.00;99813.00;5025519;28;19917;-78
2023/05/31 00:26:33;;;;;;;;;;;;;;;19.46;100.00;99814.00;5028472;28;19924;-79
2023/05/31 00:28:58;;;;;;;;;;;;;;;19.41;100.00;99827.13;5025801;28;19921;-78
2023/05/31 00:31:25;;;;;;;;;;;;;;;19.34;100.00;99815.53;5031225;28;19921;-78
2023/05/31 00:33:51;;;;;;;;;;;;;;;19.27;100.00;99814.63;5024762;28;19924;-78
2023/05/31 00:36:16;;;;;;;;;;;;;;;19.30;100.00;99819.63;5024751;28;19917;-79
2023/05/31 00:38:41;;;;;;;;;;;;;;;19.26;100.00;99826.38;5023091;28;19921;-78
2023/05/31 00:41:08;;;;;;;;;;;;;;;19.18;100.00;99813.97;5027858;28;19924;-78
2023/05/31 00:43:34;;;;;;;;;;;;;;;19.19;100.00;99811.09;5024925;28;19944;-79
2023/05/31 00:45:59;;;;;;;;;;;;;;;19.05;100.00;99819.16;5028831;28;19917;-79
2023/05/31 00:48:25;;;;;;;;;;;;;;;18.97;100.00;99817.44;5023250;28;20004;-79
2023/05/31 00:50:50;;;;;;;;;;;;;;;18.91;100.00;99812.84;5026721;28;19917;-79
2023/05/31 00:53:17;;;;;;;;;;;;;;;18.91;100.00;99810.19;5021219;28;20382;-79
2023/05/31 00:55:42;;;;;;;;;;;;;;;18.94;100.00;99814.34;5026076;28;19917;-79
2023/05/31 00:58:08;;;;;;;;;;;;;;;18.94;100.00;99817.00;5025420;28;20349;-79
2023/05/31 01:00:33;;;;;;;;;;;;;;;18.98;100.00;99813.75;5023198;28;19921;-78
2023/05/31 01:03:02;;;;;;;;;;;;;;;18.85;100.00;99813.59;5021940;28;19947;-78
2023/05/31 01:05:27;;;;;;;;;;;;;;;18.86;100.00;99822.47;5024909;28;19982;-78
2023/05/31 01:07:53;;;;;;;;;;;;;;;18.91;100.00;99815.53;5024804;28;20002;-78
2023/05/31 01:10:19;;;;;;;;;;;;;;;18.87;100.00;99816.94;5027905;28;19917;-79
2023/05/31 01:13:03;;;;;;;;;;;;;;;18.77;100.00;99813.75;5024660;28;19921;-78
2023/05/31 01:15:38;;;;;;;;;;;;;;;18.74;100.00;99819.47;5027110;28;19924;-79
2023/05/31 01:18:12;;;;;;;;;;;;;;;18.77;100.00;99816.41;5025080;28;19917;-79
2023/05/31 01:20:43;;;;;;;;;;;;;;;18.81;100.00;99815.00;5022368;28;20013;-78
2023/05/31 01:23:27;;;;;;;;;;;;;;;18.79;100.00;99812.53;5027029;28;19917;-78
2023/05/31 01:25:52;;;;;;;;;;;;;;;18.75;100.00;99815.78;5023036;28;19924;-80
2023/05/31 01:28:18;;;;;;;;;;;;;;;18.79;100.00;99817.06;5026317;28;19917;-80
2023/05/31 01:30:44;;;;;;;;;;;;;;;18.73;100.00;99817.81;5026176;28;20309;-80
2023/05/31 01:33:11;;;;;;;;;;;;;;;18.72;100.00;99814.31;5023098;28;19917;-79
2023/05/31 01:35:36;;;;;;;;;;;;;;;18.77;100.00;99808.41;5025050;28;19983;-79
2023/05/31 01:38:02;;;;;;;;;;;;;;;18.76;100.00;99818.25;5024258;28;19953;-80
2023/05/31 01:40:27;;;;;;;;;;;;;;;18.78;100.00;99816.25;5027780;28;19917;-80
2023/05/31 01:42:53;;;;;;;;;;;;;;;18.70;100.00;99820.84;5027118;28;19928;-79
2023/05/31 01:45:19;;;;;;;;;;;;;;;18.72;100.00;99818.84;5022698;28;19921;-79
2023/05/31 01:47:45;;;;;;;;;;;;;;;18.75;100.00;99821.13;5007093;28;19921;-79
2023/05/31 01:50:12;;;;;;;;;;;;;;;18.79;100.00;99822.41;5023731;28;20028;-80
2023/05/31 01:52:39;;;;;;;;;;;;;;;18.81;100.00;99817.69;5022415;28;19967;-81
2023/05/31 01:55:05;;;;;;;;;;;;;;;18.82;100.00;99816.69;5006869;28;19925;-80
2023/05/31 01:57:31;;;;;;;;;;;;;;;18.83;100.00;99829.03;5027482;28;19917;-80
2023/05/31 01:59:59;;;;;;;;;;;;;;;18.87;100.00;99821.44;5022666;28;19917;-79
2023/05/31 02:02:26;;;;;;;;;;;;;;;18.90;100.00;99819.25;5025788;28;19917;-76
2023/05/31 02:05:02;;;;;;;;;;;;;;;18.91;100.00;99820.88;5023583;28;19960;-80
2023/05/31 02:07:28;;;;;;;;;;;;;;;18.86;100.00;99817.13;5021128;28;19917;-79
2023/05/31 02:09:53;;;;;;;;;;;;;;;18.88;100.00;99815.09;5029965;28;19924;-79
2023/05/31 02:12:18;;;;;;;;;;;;;;;18.93;100.00;99813.50;5024012;28;19917;-80
2023/05/31 02:14:45;;;;;;;;;;;;;;;19.02;100.00;99828.44;5024173;28;19921;-79
2023/05/31 02:17:13;;;;;;;;;;;;;;;19.08;100.00;99827.66;5024900;28;20297;-80
2023/05/31 02:19:40;;;;;;;;;;;;;;;19.08;100.00;99827.66;5024644;28;19924;-80
2023/05/31 02:22:06;;;;;;;;;;;;;;;19.11;100.00;99829.94;5006963;28;20420;-79
2023/05/31 02:24:33;;;;;;;;;;;;;;;19.10;100.00;99832.78;5024021;28;20340;-79
2023/05/31 02:26:58;;;;;;;;;;;;;;;18.93;100.00;99834.91;5022354;28;20496;-79
2023/05/31 02:29:24;;;;;;;;;;;;;;;18.87;100.00;99830.31;5025068;28;19914;-78
2023/05/31 02:31:49;;;;;;;;;;;;;;;18.72;100.00;99826.84;5026695;28;20540;-79
2023/05/31 02:34:16;;;;;;;;;;;;;;;18.62;100.00;99828.97;5033893;23;20444;-74
2023/05/31 02:36:41;;;;;;;;;;;;;;;18.48;100.00;99840.50;4987996;28;19925;-75
2023/05/31 02:39:06;;;;;;;;;;;;;;;18.46;100.00;99838.00;4986821;28;19917;-74
2023/05/31 02:41:32;;;;;;;;;;;;;;;18.33;100.00;99833.31;4988860;28;20290;-76
2023/05/31 02:43:57;;;;;;;;;;;;;;;18.17;100.00;99833.53;4986432;28;19917;-75
2023/05/31 02:46:23;;;;;;;;;;;;;;;18.12;100.00;99825.25;5004066;28;19924;-75
2023/05/31 02:48:48;;;;;;;;;;;;;;;18.18;100.00;99832.53;4988138;28;19981;-75
2023/05/31 02:51:14;;;;;;;;;;;;;;;18.17;100.00;99830.84;4987963;28;19913;-76
2023/05/31 02:53:58;;;;;;;;;;;;;;;18.12;100.00;99827.91;5004841;28;20058;-74
2023/05/31 02:56:26;;;;;;;;;;;;;;;18.19;100.00;99830.69;4984957;28;19914;-74
2023/05/31 02:59:10;;;;;;;;;;;;;;;18.25;100.00;99836.13;5005776;28;19996;-74
2023/05/31 03:01:36;;;;;;;;;;;;;;;18.34;100.00;99834.16;5007610;28;19917;-74
2023/05/31 03:04:20;;;;;;;;;;;;;;;18.33;100.00;99841.34;5003382;28;20020;-75
2023/05/31 03:06:46;;;;;;;;;;;;;;;18.39;100.00;99843.28;4991435;28;20347;-74
2023/05/31 03:09:16;;;;;;;;;;;;;;;18.46;100.00;99839.84;4990645;28;19948;-74
2023/05/31 03:11:43;;;;;;;;;;;;;;;18.39;100.00;99843.28;4989314;28;20016;-74
2023/05/31 03:14:09;;;;;;;;;;;;;;;18.42;100.00;99837.56;5005140;28;20373;-77
2023/05/31 03:16:53;;;;;;;;;;;;;;;18.42;100.00;99844.75;4992809;28;19917;-74
2023/05/31 03:19:19;;;;;;;;;;;;;;;18.46;100.00;99847.88;4988915;28;20016;-73
2023/05/31 03:21:48;;;;;;;;;;;;;;;18.50;100.00;99843.81;4992840;28;19975;-74
2023/05/31 03:24:13;;;;;;;;;;;;;;;18.51;100.00;99845.47;5006683;28;20318;-74
2023/05/31 03:26:38;;;;;;;;;;;;;;;18.50;100.00;99839.28;4991166;28;19917;-74
2023/05/31 03:29:04;;;;;;;;;;;;;;;18.54;100.00;99855.81;4989363;28;19943;-75
2023/05/31 03:31:29;;;;;;;;;;;;;;;18.25;100.00;99835.28;4990076;28;19918;-75
2023/05/31 03:33:56;;;;;;;;;;;;;;;18.35;100.00;99847.34;4985123;28;19924;-74
2023/05/31 03:36:21;;;;;;;;;;;;;;;18.23;100.00;99840.81;5008724;28;19917;-76
2023/05/31 03:38:47;;;;;;;;;;;;;;;18.05;100.00;99842.19;5003747;28;19929;-73
2023/05/31 03:41:14;;;;;;;;;;;;;;;17.96;100.00;99846.78;4992123;28;20341;-74
2023/05/31 03:43:39;;;;;;;;;;;;;;;17.95;100.00;99845.97;4989339;28;19928;-74
2023/05/31 03:46:04;;;;;;;;;;;;;;;17.95;100.00;99845.13;4991651;28;20263;-74
2023/05/31 03:48:30;;;;;;;;;;;;;;;17.91;100.00;99849.16;4988388;28;19917;-73
2023/05/31 03:50:56;;;;;;;;;;;;;;;17.90;100.00;99852.88;4994216;28;19924;-74
2023/05/31 03:53:21;;;;;;;;;;;;;;;17.97;100.00;99853.78;5007230;28;20270;-75
2023/05/31 03:55:47;;;;;;;;;;;;;;;17.99;100.00;99852.59;4991243;28;19929;-74
2023/05/31 03:58:12;;;;;;;;;;;;;;;18.08;100.00;99856.00;4988240;28;19924;-74
2023/05/31 04:00:41;;;;;;;;;;;;;;;18.11;100.00;99866.31;4991388;28;19917;-75
2023/05/31 04:03:06;;;;;;;;;;;;;;;18.14;100.00;99860.63;4988238;28;19918;-75
2023/05/31 04:05:34;;;;;;;;;;;;;;;18.13;100.00;99868.81;4990490;28;19917;-75
2023/05/31 04:08:01;;;;;;;;;;;;;;;18.10;100.00;99864.66;4988576;28;19924;-75
2023/05/31 04:10:28;;;;;;;;;;;;;;;18.14;100.00;99868.63;4990657;28;19921;-75
2023/05/31 04:12:54;;;;;;;;;;;;;;;18.18;100.00;99863.75;5005128;28;19925;-74
2023/05/31 04:15:20;;;;;;;;;;;;;;;18.08;100.00;99872.03;4989318;28;19917;-75
2023/05/31 04:17:45;;;;;;;;;;;;;;;18.13;100.00;99866.13;4990058;28;19917;-75
2023/05/31 04:20:12;;;;;;;;;;;;;;;18.15;100.00;99862.25;4987255;28;19918;-75
2023/05/31 04:22:37;;;;;;;;;;;;;;;18.18;100.00;99877.09;4990004;28;20012;-75
2023/05/31 04:25:03;;;;;;;;;;;;;;;17.96;100.00;99868.16;4987488;28;20004;-75
2023/05/31 04:27:38;;;;;;;;;;;;;;;17.94;100.00;99876.34;4988990;28;19925;-75
2023/05/31 04:30:05;;;;;;;;;;;;;;;18.01;100.00;99879.13;4987640;28;19928;-75
2023/05/31 04:32:34;;;;;;;;;;;;;;;18.03;100.00;99877.06;4991029;28;19913;-75
2023/05/31 04:35:03;;;;;;;;;;;;;;;18.00;100.00;99880.13;4987063;28;20012;-75
2023/05/31 04:37:29;;;;;;;;;;;;;;;18.09;100.00;99876.34;4990591;28;20378;-76
2023/05/31 04:39:59;;;;;;;;;;;;;;;18.12;100.00;99878.66;4987400;28;20412;-75
2023/05/31 04:42:25;;;;;;;;;;;;;;;18.13;100.00;99874.97;4990305;28;20489;-76
2023/05/31 04:44:57;;;;;;;;;;;;;;;18.09;100.00;99879.00;4987361;28;20040;-75
2023/05/31 04:47:24;;;;;;;;;;;;;;;18.15;100.00;99882.78;4990907;28;19918;-78
2023/05/31 04:49:50;;;;;;;;;;;;;;;18.16;100.00;99890.63;4991769;28;19917;-76
2023/05/31 04:52:16;;;;;;;;;;;;;;;18.13;100.00;99885.66;4989159;28;19918;-76
2023/05/31 04:54:42;;;;;;;;;;;;;;;18.15;100.00;99888.97;4985984;28;19922;-76
2023/05/31 04:57:07;;;;;;;;;;;;;;;18.05;100.00;99888.41;4991635;28;19972;-76
2023/05/31 04:59:32;;;;;;;;;;;;;;;18.08;100.00;99888.06;4989882;28;20405;-78
2023/05/31 05:01:58;;;;;;;;;;;;;;;18.08;100.00;99888.06;5004955;28;20000;-78
2023/05/31 05:04:25;;;;;;;;;;;;;;;18.08;100.00;99887.22;4987377;28;19941;-77
2023/05/31 05:06:50;;;;;;;;;;;;;;;17.95;100.00;99887.84;4989742;28;19925;-78
2023/05/31 05:09:17;;;;;;;;;;;;;;;17.89;100.00;99888.56;5006690;28;19923;-78
2023/05/31 05:11:42;;;;;;;;;;;;;;;17.90;100.00;99890.25;4988191;28;20016;-78
2023/05/31 05:14:10;;;;;;;;;;;;;;;17.92;100.00;99882.88;5017688;28;19961;-79
2023/05/31 05:16:36;;;;;;;;;;;;;;;17.95;100.00;99893.19;5019352;28;19917;-78
2023/05/31 05:19:03;;;;;;;;;;;;;;;17.84;100.00;99890.97;4986729;28;19917;-81
2023/05/31 05:21:31;;;;;;;;;;;;;;;17.64;100.00;99895.13;4999661;28;19928;-79
2023/05/31 05:23:57;;;;;;;;;;;;;;;17.63;100.00;99893.47;4994124;28;19921;-77
2023/05/31 05:26:22;;;;;;;;;;;;;;;17.64;100.00;99895.97;5016539;28;19921;-78
2023/05/31 05:28:47;;;;;;;;;;;;;;;17.67;100.00;99900.94;5001663;28;19948;-79
2023/05/31 05:31:13;;;;;;;;;;;;;;;17.62;100.00;99891.81;4996032;28;19925;-79
2023/05/31 05:33:42;;;;;;;;;;;;;;;17.68;100.00;99891.09;4986276;28;19925;-79
2023/05/31 05:36:08;;;;;;;;;;;;;;;17.75;100.00;99894.69;4989412;28;19996;-78
2023/05/31 05:38:41;;;;;;;;;;;;;;;17.76;100.00;99891.88;4988612;28;19917;-79
2023/05/31 05:41:10;;;;;;;;;;;;;;;17.74;100.00;99903.72;4970899;28;19964;-80
2023/05/31 05:43:37;;;;;;;;;;;;;;;17.69;100.00;99903.44;4983658;28;19917;-82
2023/05/31 05:46:08;;;;;;;;;;;;;;;17.45;100.00;99905.25;5005348;28;20499;-80
2023/05/31 05:48:34;;;;;;;;;;;;;;;17.32;100.00;99904.22;4969658;28;20020;-78
2023/05/31 05:50:59;;;;;;;;;;;;;;;17.26;100.00;99907.59;4973588;28;19924;-78
2023/05/31 05:53:26;;;;;;;;;;;;;;;17.31;100.00;99906.03;4985741;28;19960;-78
2023/05/31 05:55:52;;;;;;;;;;;;;;;17.29;100.00;99902.72;4985562;28;20011;-80
2023/05/31 05:58:21;;;;;;;;;;;;;;;17.32;100.00;99907.69;4985254;28;20304;-79
2023/05/31 06:01:06;;;;;;;;;;;;;;;17.42;100.00;99902.13;5000720;28;19972;-77
2023/05/31 06:03:34;;;;;;;;;;;;;;;17.44;100.00;99906.25;4988737;28;20011;-79
2023/05/31 06:06:02;;;;;;;;;;;;;;;17.53;100.00;99907.03;4999651;28;19921;-80
2023/05/31 06:08:28;;;;;;;;;;;;;;;17.67;100.00;99910.81;4986573;28;20047;-79
2023/05/31 06:10:53;;;;;;;;;;;;;;;17.59;100.00;99909.00;4984572;28;19918;-78
2023/05/31 06:13:19;;;;;;;;;;;;;;;17.48;100.00;99915.59;4988620;28;20358;-82
2023/05/31 06:15:44;;;;;;;;;;;;;;;17.49;100.00;99919.91;4985669;28;19961;-86
2023/05/31 06:18:10;;;;;;;;;;;;;;;17.65;100.00;99915.47;5006550;28;19917;-80
2023/05/31 06:20:35;;;;;;;;;;;;;;;17.66;100.00;99925.16;4985341;28;19917;-81
2023/05/31 06:23:01;;;;;;;;;;;;;;;17.81;100.00;99920.69;4989886;28;19917;-82
2023/05/31 06:25:26;;;;;;;;;;;;;;;17.91;100.00;99929.25;4986204;28;20009;-83
2023/05/31 06:27:52;;;;;;;;;;;;;;;17.98;100.00;99930.19;4989218;28;19940;-83
2023/05/31 06:30:17;;;;;;;;;;;;;;;17.96;100.00;99917.06;4985113;28;20005;-80
2023/05/31 06:32:45;;;;;;;;;;;;;;;17.85;100.00;99924.63;4986454;28;19992;-80
2023/05/31 06:35:16;;;;;;;;;;;;;;;17.82;100.00;99919.66;4975508;28;19917;-81
2023/05/31 06:37:42;;;;;;;;;;;;;;;17.96;100.00;99924.22;4993530;28;19925;-81
2023/05/31 06:40:09;;;;;;;;;;;;;;;18.09;100.00;99926.25;4973453;28;19925;-81
2023/05/31 06:42:36;;;;;;;;;;;;;;;18.15;100.00;99939.72;5023337;28;20052;-82
2023/05/31 06:45:20;;;;;;;;;;;;;;;18.17;100.00;99932.34;5009178;28;19936;-82
2023/05/31 06:47:48;;;;;;;;;;;;;;;18.26;100.00;99933.91;5008310;28;20023;-81
2023/05/31 06:50:19;;;;;;;;;;;;;;;18.17;100.00;99934.19;5009616;28;19925;-81
2023/05/31 06:52:44;;;;;;;;;;;;;;;18.08;100.00;99941.47;5006586;28;19917;-81
2023/05/31 06:55:33;;;;;;;;;;;;;;;18.04;100.00;99937.47;5010550;28;20024;-82
2023/05/31 06:57:59;;;;;;;;;;;;;;;18.15;100.00;99934.38;4994488;28;19918;-82
2023/05/31 07:00:25;;;;;;;;;;;;;;;18.15;100.00;99934.38;5011806;28;19924;-82
2023/05/31 07:02:51;;;;;;;;;;;;;;;18.29;100.00;99935.41;4989817;28;19928;-81
2023/05/31 07:05:17;;;;;;;;;;;;;;;18.42;100.00;99936.44;4994722;28;19917;-82
2023/05/31 07:07:45;;;;;;;;;;;;;;;18.57;100.00;99935.63;4988385;28;20036;-82
2023/05/31 07:10:11;;;;;;;;;;;;;;;18.52;100.00;99932.66;4991058;28;20004;-81
2023/05/31 07:12:36;;;;;;;;;;;;;;;18.61;100.00;99942.28;4990551;28;19928;-82
2023/05/31 07:15:01;;;;;;;;;;;;;;;18.63;100.00;99937.56;5016821;28;19964;-82
2023/05/31 07:17:29;;;;;;;;;;;;;;;18.65;100.00;99941.72;4990485;28;19925;-82
2023/05/31 07:19:54;;;;;;;;;;;;;;;18.50;100.00;99940.00;4992156;28;20362;-82
2023/05/31 07:22:22;;;;;;;;;;;;;;;18.41;100.00;99948.13;5013994;28;19928;-82
2023/05/31 07:24:48;;;;;;;;;;;;;;;18.49;100.00;99943.72;5011025;28;20025;-83
2023/05/31 07:27:13;;;;;;;;;;;;;;;18.65;100.00;99947.06;5008564;28;20007;-81
2023/05/31 07:29:39;;;;;;;;;;;;;;;18.78;100.00;99939.22;5009231;28;19925;-82
2023/05/31 07:32:04;;;;;;;;;;;;;;;18.87;100.00;99937.25;5007445;28;19913;-82
2023/05/31 07:34:30;;;;;;;;;;;;;;;18.70;100.00;99935.81;5009720;28;19918;-85
2023/05/31 07:36:55;;;;;;;;;;;;;;;18.69;100.00;99942.16;5008437;28;20290;-85
2023/05/31 07:39:21;;;;;;;;;;;;;;;18.91;100.00;99943.88;5008165;28;20562;-86
2023/05/31 07:41:47;;;;;;;;;;;;;;;19.10;100.00;99934.44;5004029;28;19925;-85
2023/05/31 07:44:12;;;;;;;;;;;;;;;19.17;100.00;99938.84;5007626;28;19939;-82
2023/05/31 07:46:37;;;;;;;;;;;;;;;19.32;100.00;99935.31;5009842;28;19967;-88
2023/05/31 07:49:03;;;;;;;;;;;;;;;19.48;100.00;99935.09;5010173;28;20377;-88
2023/05/31 07:51:29;;;;;;;;;;;;;;;19.67;100.00;99928.28;5009722;28;19917;-86
2023/05/31 07:53:55;;;;;;;;;;;;;;;19.77;100.00;99940.31;5006903;28;19917;-85
2023/05/31 07:56:20;;;;;;;;;;;;;;;19.92;100.00;99937.53;5006541;28;19932;-84
2023/05/31 07:58:46;;;;;;;;;;;;;;;20.13;100.00;99928.66;5008370;28;19921;-85
2023/05/31 08:01:12;;;;;;;;;;;;;;;20.42;100.00;99933.81;5005891;28;19925;-86
2023/05/31 08:03:38;;;;;;;;;;;;;;;20.61;100.00;99933.13;5009091;28;19939;-84
2023/05/31 08:06:04;;;;;;;;;;;;;;;20.74;100.00;99933.16;5007815;28;20004;-85
2023/05/31 08:08:32;;;;;;;;;;;;;;;20.94;100.00;99932.44;5005547;28;19917;-85
2023/05/31 08:10:58;;;;;;;;;;;;;;;20.97;100.00;99932.03;5005458;28;19918;-79
2023/05/31 08:13:24;;;;;;;;;;;;;;;21.17;100.00;99933.78;5008052;28;19948;-81
2023/05/31 08:15:49;;;;;;;;;;;;;;;21.15;100.00;99930.47;5004665;28;19917;-80
2023/05/31 08:18:15;;;;;;;;;;;;;;;21.28;100.00;99927.00;5008412;28;20259;-80
2023/05/31 08:20:40;;;;;;;;;;;;;;;21.36;100.00;99932.19;5004077;28;19945;-80
2023/05/31 08:23:05;;;;;;;;;;;;;;;21.40;100.00;99932.59;5004523;28;19917;-81
2023/05/31 08:25:31;;;;;;;;;;;;;;;21.18;100.00;99939.97;5004256;28;19921;-81
2023/05/31 08:27:56;;;;;;;;;;;;;;;21.15;100.00;99935.00;5009306;28;19917;-80
2023/05/31 08:30:21;;;;;;;;;;;;;;;21.09;100.00;99935.78;4988330;28;19928;-79
2023/05/31 08:32:47;;;;;;;;;;;;;;;21.04;100.00;99946.28;5007678;28;19921;-78
2023/05/31 08:35:12;;;;;;;;;;;;;;;21.14;100.00;99938.72;5007747;28;20021;-81
2023/05/31 08:37:38;;;;;;;;;;;;;;;21.35;100.00;99940.44;5004178;28;20727;-82
2023/05/31 08:40:05;;;;;;;;;;;;;;;21.49;100.00;99926.84;5002862;28;19926;-82
2023/05/31 08:42:43;;;;;;;;;;;;;;;21.52;100.00;99930.97;5004532;28;20405;-83
2023/05/31 08:45:09;;;;;;;;;;;;;;;21.37;100.00;99933.84;5003434;28;19971;-81
2023/05/31 08:47:38;;;;;;;;;;;;;;;21.44;100.00;99923.94;5003365;28;19929;-81
2023/05/31 08:50:03;;;;;;;;;;;;;;;21.38;100.00;99927.47;5004166;28;19952;-80
2023/05/31 08:52:31;;;;;;;;;;;;;;;21.33;100.00;99935.25;4989908;28;20011;-79
2023/05/31 08:54:56;;;;;;;;;;;;;;;21.34;100.00;99934.25;5000140;28;19917;-82
2023/05/31 08:57:22;;;;;;;;;;;;;;;21.32;100.00;99930.13;5007723;28;20282;-79
2023/05/31 08:59:48;;;;;;;;;;;;;;;21.24;100.00;99928.44;5002763;28;19984;-84
2023/05/31 09:02:14;;;;;;;;;;;;;;;21.34;100.00;99934.25;5005514;28;19963;-83
2023/05/31 09:04:42;;;;;;;;;;;;;;;21.40;100.00;99922.69;5000106;28;20469;-85
2023/05/31 09:07:07;;;;;;;;;;;;;;;21.55;100.00;99928.72;5005317;28;20000;-84
2023/05/31 09:09:33;;;;;;;;;;;;;;;21.52;100.00;99921.06;5004396;28;20400;-88
2023/05/31 09:12:00;;;;;;;;;;;;;;;21.42;100.00;99935.91;5004989;28;19929;-86
2023/05/31 09:14:25;;;;;;;;;;;;;;;21.38;100.00;99927.47;5019106;28;19925;-86
2023/05/31 09:16:51;;;;;;;;;;;;;;;21.28;100.00;99939.59;5025762;28;19909;-86
2023/05/31 09:19:16;;;;;;;;;;;;;;;21.24;100.00;99931.13;5027900;28;19945;-83
2023/05/31 09:21:43;;;;;;;;;;;;;;;21.18;100.00;99934.63;5015988;28;19917;-85
2023/05/31 09:24:10;;;;;;;;;;;;;;;21.29;100.00;99938.56;4990914;28;19917;-86
2023/05/31 09:26:44;;;;;;;;;;;;;;;21.52;100.00;99928.28;5008116;28;19917;-86
2023/05/31 09:29:10;;;;;;;;;;;;;;;21.60;100.00;99934.31;4989061;28;19917;-86
2023/05/31 09:31:35;;;;;;;;;;;;;;;21.76;100.00;99935.75;5001504;28;20361;-87
2023/05/31 09:34:00;;;;;;;;;;;;;;;21.67;100.00;99937.00;5007538;28;19925;-85
2023/05/31 09:36:30;;;;;;;;;;;;;;;21.74;100.00;99937.81;5007329;28;19968;-85
2023/05/31 09:39:00;;;;;;;;;;;;;;;21.64;100.00;99927.47;5006588;28;20377;-85
2023/05/31 09:41:27;;;;;;;;;;;;;;;21.50;100.00;99922.31;5009581;28;19925;-86
2023/05/31 09:43:52;;;;;;;;;;;;;;;21.38;100.00;99924.78;5004440;28;19948;-85
2023/05/31 09:46:19;;;;;;;;;;;;;;;21.30;100.00;99924.94;5007708;28;20370;-84
2023/05/31 09:48:56;;;;;;;;;;;;;;;21.22;100.00;99925.13;5003251;28;19972;-85
2023/05/31 09:51:21;;;;;;;;;;;;;;;21.33;100.00;99921.84;5004812;28;19917;-83
2023/05/31 09:53:48;;;;;;;;;;;;;;;21.44;100.00;99923.94;5000435;28;20013;-82
2023/05/31 09:56:18;;;;;;;;;;;;;;;21.55;100.00;99920.66;4990809;28;19964;-82
2023/05/31 09:58:44;;;;;;;;;;;;;;;21.67;100.00;99928.13;4987214;28;19921;-83
2023/05/31 10:01:10;;;;;;;;;;;;;;;21.72;100.00;99928.31;4985594;28;20361;-83
2023/05/31 10:03:36;;;;;;;;;;;;;;;21.60;100.00;99923.56;5006764;28;19917;-83
2023/05/31 10:06:02;;;;;;;;;;;;;;;21.61;100.00;99927.91;5006920;28;20388;-83
2023/05/31 10:08:28;;;;;;;;;;;;;;;21.64;100.00;99926.66;5002763;28;19917;-83
2023/05/31 10:10:55;;;;;;;;;;;;;;;21.58;100.00;99924.78;5006021;28;20255;-83
2023/05/31 10:13:23;;;;;;;;;;;;;;;21.59;100.00;99921.06;5005896;28;19918;-83
2023/05/31 10:15:50;;;;;;;;;;;;;;;21.67;100.00;99917.38;5000700;28;19936;-83
2023/05/31 10:18:16;;;;;;;;;;;;;;;21.85;100.00;99920.28;5005040;28;20008;-82
2023/05/31 10:20:49;;;;;;;;;;;;;;;22.06;100.00;99912.00;5000996;28;19922;-83
2023/05/31 10:23:20;;;;;;;;;;;;;;;22.22;100.00;99916.13;5005129;28;19917;-83
2023/05/31 10:26:06;;;;;;;;;;;;;;;22.27;100.00;99917.13;5004271;28;20025;-83
2023/05/31 10:28:35;;;;;;;;;;;;;;;22.19;100.00;99925.44;5002442;28;20359;-83
2023/05/31 10:31:02;;;;;;;;;;;;;;;22.29;100.00;99917.78;5005963;28;19952;-83
2023/05/31 10:33:30;;;;;;;;;;;;;;;22.38;100.00;99916.50;5000035;28;19948;-83
2023/05/31 10:35:56;;;;;;;;;;;;;;;22.42;100.00;99912.38;5006009;28;20346;-83
2023/05/31 10:38:24;;;;;;;;;;;;;;;22.31;100.00;99918.41;5003824;28;19925;-83
2023/05/31 10:40:55;;;;;;;;;;;;;;;22.26;100.00;99912.81;5003103;28;20028;-83
2023/05/31 10:43:30;;;;;;;;;;;;;;;22.31;100.00;99904.13;5003184;28;20653;-83
2023/05/31 10:46:02;;;;;;;;;;;;;;;22.32;100.00;99900.41;5006345;28;19921;-82
2023/05/31 10:48:51;;;;;;;;;;;;;;;22.37;100.00;99898.72;4984730;28;19917;-82
2023/05/31 10:51:16;;;;;;;;;;;;;;;22.26;100.00;99891.31;5003399;28;19972;-82
2023/05/31 10:53:43;;;;;;;;;;;;;;;22.23;100.00;99896.28;5003935;28;19917;-80
2023/05/31 10:56:13;;;;;;;;;;;;;;;22.06;100.00;99887.81;5005172;28;19921;-81
2023/05/31 10:58:39;;;;;;;;;;;;;;;22.15;99.94;99893.81;5002786;28;19968;-82
2023/05/31 11:01:06;;;;;;;;;;;;;;;22.25;98.99;99896.91;5000485;28;19918;-82
2023/05/31 11:03:35;;;;;;;;;;;;;;;22.33;96.07;99892.09;5004969;28;19928;-83
2023/05/31 11:06:03;;;;;;;;;;;;;;;22.42;96.21;99890.03;5001292;28;19983;-82
2023/05/31 11:08:29;;;;;;;;;;;;;;;22.39;96.30;99885.88;5003312;28;19921;-82
2023/05/31 11:11:13;;;;;;;;;;;;;;;22.44;97.65;99877.22;5002705;28;19924;-82
2023/05/31 11:14:00;;;;;;;;;;;;;;;22.38;95.02;99889.59;5004738;28;19921;-82
2023/05/31 11:16:26;;;;;;;;;;;;;;;22.44;94.90;99878.00;5005494;28;19921;-82
2023/05/31 11:19:01;;;;;;;;;;;;;;;22.41;94.84;99881.13;5002336;28;19926;-82
2023/05/31 11:21:45;;;;;;;;;;;;;;;22.35;91.04;99884.66;5009508;28;20294;-82
2023/05/31 11:24:24;;;;;;;;;;;;;;;22.41;90.08;99883.81;5007987;28;20332;-82
2023/05/31 11:26:53;;;;;;;;;;;;;;;22.52;91.90;99878.81;5008899;28;19964;-82
2023/05/31 11:29:18;;;;;;;;;;;;;;;22.52;92.71;99878.81;5010518;28;20011;-82
2023/05/31 11:31:58;;;;;;;;;;;;;;;22.53;94.00;99875.09;5009031;28;19917;-81
2023/05/31 11:34:25;;;;;;;;;;;;;;;22.39;91.47;99885.88;5010864;28;19996;-82
2023/05/31 11:36:50;;;;;;;;;;;;;;;22.41;90.10;99873.06;5005138;28;19925;-82
2023/05/31 11:39:16;;;;;;;;;;;;;;;22.33;91.46;99870.59;5009931;28;20294;-82
2023/05/31 11:41:43;;;;;;;;;;;;;;;22.29;90.42;99872.06;5007441;28;20009;-81
2023/05/31 11:44:10;;;;;;;;;;;;;;;22.11;89.64;99877.28;5008935;28;19917;-82
2023/05/31 11:46:39;;;;;;;;;;;;;;;22.13;89.27;99869.84;5002757;28;20370;-80
2023/05/31 11:49:08;;;;;;;;;;;;;;;22.23;89.40;99870.22;5011257;28;19924;-80
2023/05/31 11:51:35;;;;;;;;;;;;;;;22.32;89.34;99868.97;5005520;28;19924;-81
2023/05/31 11:54:00;;;;;;;;;;;;;;;22.40;89.20;99863.34;5009531;28;19964;-79
2023/05/31 11:56:30;;;;;;;;;;;;;;;22.43;89.30;99860.25;5005915;28;19913;-82
2023/05/31 11:58:58;;;;;;;;;;;;;;;22.53;89.67;99858.97;5008653;28;20405;-80
2023/05/31 12:01:26;;;;;;;;;;;;;;;22.56;88.02;99853.19;5000651;28;19975;-81
2023/05/31 12:03:59;;;;;;;;;;;;;;;22.61;87.77;99856.03;5007829;28;19972;-81
2023/05/31 12:06:26;;;;;;;;;;;;;;;22.84;88.54;99857.22;5004827;28;19917;-81
2023/05/31 12:08:52;;;;;;;;;;;;;;;23.00;88.69;99858.56;5008002;28;20306;-81
2023/05/31 12:11:17;;;;;;;;;;;;;;;23.20;86.37;99853.91;5005466;28;19972;-82
2023/05/31 12:13:43;;;;;;;;;;;;;;;23.56;85.16;99849.72;4990923;28;20385;-81
2023/05/31 12:16:08;;;;;;;;;;;;;;;23.55;80.78;99842.69;5004979;28;19928;-81
2023/05/31 12:18:34;;;;;;;;;;;;;;;23.53;81.96;99845.59;5008365;28;19924;-81
2023/05/31 12:21:04;;;;;;;;;;;;;;;23.57;84.54;99845.97;4984115;28;19917;-81
2023/05/31 12:23:30;;;;;;;;;;;;;;;23.25;84.59;99843.28;5008884;28;19928;-82
2023/05/31 12:25:57;;;;;;;;;;;;;;;23.34;85.53;99835.75;4989121;28;19917;-81
2023/05/31 12:28:22;;;;;;;;;;;;;;;23.60;83.89;99834.78;5008350;28;19932;-82
2023/05/31 12:30:49;;;;;;;;;;;;;;;23.78;84.09;99834.00;5005484;28;19926;-81
2023/05/31 12:33:15;;;;;;;;;;;;;;;23.88;81.69;99827.03;5007086;28;19924;-81
2023/05/31 12:35:42;;;;;;;;;;;;;;;24.19;81.78;99833.41;5003848;28;20270;-85
2023/05/31 12:38:07;;;;;;;6.38;4.50;;;;;;;24.38;79.93;99821.56;5009231;28;20067;-81
2023/05/31 12:40:38;;;;;;;6.07;3.97;;;;;;;24.58;79.98;99816.72;5005526;28;20044;-83